Time;durP1;ratioP1;P1;durP2;ratioP2;P2;SDS_P1;SDS_P2;PMS_P1;PMS_P2;Temp;Humidity;BMP_temperature;BMP_pressure;BME280_temperature;BME280_humidity;BME280_pressure;Samples;Min_cycle;Max_cycle;Signal;HPM_P1;HPM_P2
2022/08/08 00:02:24;;;;;;;2.55;1.70;;;;;;;13.57;73.29;101487.66;1764285;79;25912;-76
2022/08/08 00:05:01;;;;;;;6.22;2.33;;;;;;;13.36;72.88;101479.48;1753971;79;26648;-76
2022/08/08 00:07:53;;;;;;;3.65;2.27;;;;;;;13.26;73.27;101481.57;1733692;79;28349;-77
2022/08/08 00:10:34;;;;;;;4.92;2.45;;;;;;;13.20;73.61;101474.73;1751710;81;25877;-77
2022/08/08 00:13:15;;;;;;;3.35;2.35;;;;;;;13.19;73.79;101477.13;1761046;79;25854;-76
2022/08/08 00:15:44;;;;;;;;;;;;;;;13.14;73.73;101474.47;1765992;79;25941;-76
2022/08/08 00:18:25;;;;;;;4.17;2.80;;;;;;;13.11;73.93;101468.09;1738388;81;25934;-76
2022/08/08 00:20:56;;;;;;;3.50;2.60;;;;;;;13.07;74.26;101474.02;1762139;79;28191;-76
2022/08/08 00:23:46;;;;;;;3.33;2.42;;;;;;;13.08;74.67;101471.67;1791842;79;26485;-76
2022/08/08 00:26:18;;;;;;;4.10;2.20;;;;;;;13.08;74.73;101471.67;1795922;79;25943;-77
2022/08/08 00:28:48;;;;;;;5.75;3.47;;;;;;;13.11;74.86;101475.32;1779117;79;27248;-76
2022/08/08 00:31:20;;;;;;;4.17;2.22;;;;;;;13.12;74.97;101473.81;1783340;79;26009;-75
2022/08/08 00:38:08;;;;;;;4.97;2.55;;;;;;;13.15;74.77;101469.93;1786215;79;25819;-76
2022/08/08 00:40:49;;;;;;;2.85;2.47;;;;;;;13.10;74.93;101462.41;1766877;79;25881;-76
2022/08/08 00:44:01;;;;;;;3.22;2.47;;;;;;;13.08;75.06;101463.09;1794687;79;26525;-77
2022/08/08 00:47:05;;;;;;;4.37;2.77;;;;;;;13.09;75.01;101459.88;1793514;79;25946;-77
2022/08/08 00:49:52;;;;;;;7.30;3.05;;;;;;;13.10;75.08;101464.25;1785480;79;27541;-77
2022/08/08 00:52:52;;;;;;;4.80;2.70;;;;;;;13.12;75.28;101462.22;1793768;79;25984;-76
2022/08/08 00:55:42;;;;;;;2.75;2.47;;;;;;;13.15;75.48;101461.86;1793730;79;25723;-76
2022/08/08 00:58:42;;;;;;;6.20;2.58;;;;;;;13.17;75.73;101459.83;1783173;79;25834;-74
2022/08/08 01:01:28;;;;;;;4.72;2.22;;;;;;;13.17;75.71;101460.33;1796309;79;25746;-76
2022/08/08 01:04:19;;;;;;;4.40;3.17;;;;;;;13.16;75.59;101456.80;1779995;79;27462;-76
2022/08/08 01:07:17;;;;;;;4.20;2.70;;;;;;;13.14;75.48;101458.83;1770047;79;25702;-77
2022/08/08 01:10:15;;;;;;;10.13;2.70;;;;;;;13.12;75.51;101458.18;1775905;79;25813;-76
2022/08/08 01:12:56;;;;;;;6.95;2.92;;;;;;;13.06;75.29;101457.56;1789651;79;25900;-75
2022/08/08 01:15:55;;;;;;;5.72;2.60;;;;;;;13.02;75.47;101457.05;1777219;79;25947;-76
2022/08/08 01:18:52;;;;;;;4.05;2.10;;;;;;;12.97;75.42;101452.73;1785537;79;27422;-75
2022/08/08 01:21:31;;;;;;;5.47;2.17;;;;;;;12.93;75.26;101457.31;1767864;79;25491;-75
2022/08/08 01:24:44;;;;;;;5.72;2.30;;;;;;;12.89;75.25;101464.07;1784188;79;25892;-77
2022/08/08 01:27:39;;;;;;;2.05;1.85;;;;;;;12.83;75.17;101458.08;1771954;79;26504;-76
2022/08/08 01:31:03;;;;;;;4.87;2.20;;;;;;;12.75;74.94;101467.52;1749929;79;25900;-76
2022/08/08 01:33:48;;;;;;;2.55;2.05;;;;;;;12.72;74.93;101458.49;1764224;80;27486;-75
2022/08/08 01:37:04;;;;;;;3.70;2.37;;;;;;;12.63;74.67;101452.34;1751059;79;25917;-75
2022/08/08 01:39:58;;;;;;;6.12;2.30;;;;;;;12.59;74.70;101461.78;1719878;81;25849;-76
2022/08/08 01:42:42;;;;;;;5.22;2.17;;;;;;;12.56;74.67;101465.31;1757186;79;25922;-75
2022/08/08 01:45:24;;;;;;;3.00;2.45;;;;;;;12.53;74.88;101452.25;1766348;79;25832;-75
2022/08/08 01:48:24;;;;;;;5.90;2.60;;;;;;;12.50;74.81;101456.63;1752387;79;27981;-76
2022/08/08 01:51:24;;;;;;;2.27;2.08;;;;;;;12.43;74.83;101455.16;1766160;79;26045;-76
2022/08/08 01:54:03;;;;;;;4.60;2.40;;;;;;;12.36;74.78;101460.91;1777436;79;25815;-76
2022/08/08 01:56:53;;;;;;;2.85;1.60;;;;;;;12.26;74.90;101462.98;1738266;79;25847;-78
2022/08/08 01:59:57;;;;;;;5.80;1.60;;;;;;;12.21;75.06;101463.52;1760620;79;25780;-76
2022/08/08 02:03:00;;;;;;;3.83;2.00;;;;;;;12.16;75.18;101457.85;1755572;79;27446;-77
2022/08/08 02:05:55;;;;;;;4.72;1.70;;;;;;;12.10;74.99;101461.75;1752933;79;26414;-76
2022/08/08 02:08:33;;;;;;;5.05;2.02;;;;;;;12.07;75.15;101461.59;1735171;79;25732;-76
2022/08/08 02:11:32;;;;;;;1.95;1.57;;;;;;;12.04;75.44;101465.14;1755545;79;25859;-77
2022/08/08 02:14:13;;;;;;;3.20;1.80;;;;;;;12.01;75.37;101463.63;1760942;79;25816;-76
2022/08/08 02:17:04;;;;;;;3.52;1.55;;;;;;;11.98;75.30;101473.37;1764380;79;27478;-76
2022/08/08 02:19:53;;;;;;;2.02;1.60;;;;;;;11.95;75.18;101466.18;1752571;79;26113;-76
2022/08/08 02:22:34;;;;;;;3.30;2.17;;;;;;;11.93;75.31;101466.33;1754695;79;26460;-76
2022/08/08 02:25:26;;;;;;;3.58;1.92;;;;;;;11.91;75.28;101472.91;1772066;79;25783;-75
2022/08/08 02:28:07;;;;;;;2.75;1.80;;;;;;;11.88;75.64;101478.61;1753087;79;26206;-75
2022/08/08 02:31:06;;;;;;;2.10;1.80;;;;;;;11.85;75.75;101479.80;1786457;79;27452;-76
2022/08/08 02:34:04;;;;;;;2.55;1.87;;;;;;;11.83;75.68;101480.97;1778480;79;29174;-76
2022/08/08 02:36:45;;;;;;;3.90;1.80;;;;;;;11.81;75.65;101477.13;1796326;79;26441;-75
2022/08/08 02:39:30;;;;;;;;;;;;;;;11.78;75.84;101484.20;1798435;79;26627;-76
2022/08/08 02:42:11;;;;;;;2.00;1.55;;;;;;;11.74;75.66;101481.50;1791249;79;25742;-75
2022/08/08 02:45:17;;;;;;;2.72;1.52;;;;;;;11.67;75.81;101486.41;1797944;79;28297;-77
2022/08/08 02:48:04;;;;;;;2.77;1.57;;;;;;;11.65;76.02;101479.84;1802710;79;26454;-76
2022/08/08 02:51:05;;;;;;;2.08;1.57;;;;;;;11.62;76.09;101484.20;1786814;79;25928;-76
2022/08/08 02:54:04;;;;;;;1.60;1.50;;;;;;;11.57;75.97;101483.38;1767426;79;26622;-76
2022/08/08 02:56:57;;;;;;;3.67;1.40;;;;;;;11.56;76.23;101477.69;1785936;79;25934;-77
2022/08/08 03:00:18;;;;;;;7.70;1.90;;;;;;;11.54;76.19;101485.08;1784009;79;28355;-76
2022/08/08 03:03:27;;;;;;;4.42;1.50;;;;;;;11.47;75.98;101485.42;1782162;78;25797;-76
2022/08/08 03:06:24;;;;;;;2.02;1.47;;;;;;;11.41;76.22;101482.58;1702946;82;25927;-76
2022/08/08 03:09:25;;;;;;;3.87;1.57;;;;;;;11.37;76.23;101486.12;1794924;79;25935;-75
2022/08/08 03:12:16;;;;;;;2.75;1.77;;;;;;;11.37;76.41;101487.46;1794008;79;25318;-75
2022/08/08 03:14:56;;;;;;;2.80;1.87;;;;;;;11.36;76.51;101484.43;1772117;79;27496;-75
2022/08/08 03:17:52;;;;;;;3.23;1.77;;;;;;;11.38;76.76;101483.75;1765711;79;26005;-75
2022/08/08 03:20:18;;;;;;;1.82;1.50;;;;;;;11.39;76.69;101483.26;1693795;82;25815;-76
2022/08/08 03:22:48;;;;;;;3.65;1.55;;;;;;;11.37;76.65;101482.59;1727427;79;25859;-75
2022/08/08 03:25:18;;;;;;;3.90;1.70;;;;;;;11.36;76.63;101483.09;1745263;79;25825;-75
2022/08/08 03:27:53;;;;;;;6.37;1.45;;;;;;;11.37;76.66;101485.27;1760806;79;32707;-76
2022/08/08 03:30:20;;;;;;;3.30;1.65;;;;;;;11.36;76.53;101491.14;1732184;79;25781;-75
2022/08/08 03:35:37;;;;;;;5.10;1.87;;;;;;;11.34;76.72;101491.81;1763779;79;25852;-76
2022/08/08 03:38:04;;;;;;;2.58;1.75;;;;;;;11.32;76.81;101483.59;1760816;79;26358;-75
2022/08/08 03:40:32;;;;;;;2.70;1.87;;;;;;;11.35;76.90;101488.63;1753859;79;27459;-75
2022/08/08 03:43:00;;;;;;;2.25;2.02;;;;;;;11.36;76.92;101484.92;1763520;79;26402;-75
2022/08/08 03:45:28;;;;;;;4.40;2.45;;;;;;;11.37;77.07;101487.46;1763571;79;25757;-75
2022/08/08 03:48:01;;;;;;;5.37;2.40;;;;;;;11.39;77.25;101494.83;1750329;79;26589;-75
2022/08/08 03:50:32;;;;;;;3.58;2.60;;;;;;;11.43;77.28;101488.61;1760049;79;25850;-75
2022/08/08 03:53:10;;;;;;;2.17;1.92;;;;;;;11.46;77.32;101494.99;1761718;79;28350;-76
2022/08/08 03:55:40;;;;;;;4.17;1.60;;;;;;;11.45;77.36;101490.62;1756582;80;25775;-77
2022/08/08 03:58:09;;;;;;;1.72;1.50;;;;;;;11.42;77.38;101493.13;1760564;79;25799;-76
2022/08/08 04:00:36;;;;;;;3.15;1.65;;;;;;;11.39;77.49;101493.49;1759855;79;26577;-76
2022/08/08 04:03:06;;;;;;;3.98;1.80;;;;;;;11.41;77.68;101497.34;1727489;81;25890;-77
2022/08/08 04:05:36;;;;;;;2.35;1.52;;;;;;;11.42;77.84;101500.33;1760347;80;27471;-76
2022/08/08 04:08:07;;;;;;;4.83;2.08;;;;;;;11.44;77.96;101495.67;1759362;79;25851;-76
2022/08/08 04:10:35;;;;;;;1.85;1.67;;;;;;;11.48;78.07;101500.49;1761768;79;26598;-77
2022/08/08 04:13:03;;;;;;;2.40;1.90;;;;;;;11.53;78.26;101500.83;1756352;79;25883;-76
2022/08/08 04:15:30;;;;;;;3.92;2.42;;;;;;;11.59;78.41;101496.61;1754342;79;25922;-76
2022/08/08 04:17:57;;;;;;;5.12;2.80;;;;;;;11.65;78.70;101498.10;1747627;79;27456;-76
2022/08/08 04:20:23;;;;;;;8.58;3.05;;;;;;;11.71;79.00;101499.31;1762300;79;25775;-76
2022/08/08 04:22:51;;;;;;;5.47;2.90;;;;;;;11.78;79.27;101502.99;1759454;79;25795;-76
2022/08/08 04:25:17;;;;;;;6.92;3.45;;;;;;;11.86;79.59;101508.33;1751990;81;26665;-75
2022/08/08 04:27:44;;;;;;;4.53;2.67;;;;;;;11.92;80.03;101506.29;1748987;79;25727;-75
2022/08/08 04:30:11;;;;;;;5.37;2.77;;;;;;;11.98;80.39;101507.43;1736523;81;27456;-76
2022/08/08 04:32:38;;;;;;;4.45;3.20;;;;;;;12.04;80.78;101511.60;1752818;80;25736;-75
2022/08/08 04:35:06;;;;;;;6.80;3.10;;;;;;;12.09;80.94;101509.24;1738135;79;25848;-75
2022/08/08 04:37:36;;;;;;;4.47;3.45;;;;;;;12.15;81.29;101515.25;1758095;79;25821;-76
2022/08/08 04:40:09;;;;;;;4.75;3.35;;;;;;;12.21;81.53;101513.73;1748688;79;25807;-76
2022/08/08 04:42:37;;;;;;;;;;;;;;;12.28;81.89;101514.69;1752900;79;27495;-76
2022/08/08 04:45:05;;;;;;;5.35;2.92;;;;;;;12.34;82.49;101516.16;1757431;79;25848;-77
2022/08/08 04:47:32;;;;;;;8.20;3.27;;;;;;;12.39;82.75;101515.64;1763193;79;25888;-76
2022/08/08 04:49:59;;;;;;;8.43;4.35;;;;;;;12.46;83.06;101518.46;1748836;79;26591;-76
2022/08/08 04:52:25;;;;;;;7.12;3.80;;;;;;;12.55;82.96;101516.06;1762579;79;25919;-76
2022/08/08 04:54:52;;;;;;;5.70;4.20;;;;;;;12.64;83.34;101514.48;1731129;79;27481;-76
2022/08/08 04:57:18;;;;;;;6.30;4.10;;;;;;;12.74;83.78;101517.80;1745744;79;26080;-75
2022/08/08 04:59:44;;;;;;;5.20;3.98;;;;;;;12.82;84.18;101516.38;1736976;81;25774;-77
2022/08/08 05:02:13;;;;;;;5.33;3.60;;;;;;;12.89;84.57;101517.84;1751828;79;25914;-76
2022/08/08 05:04:41;;;;;;;5.78;4.05;;;;;;;12.96;84.77;101525.00;1765143;79;25769;-76
2022/08/08 05:07:07;;;;;;;7.75;4.55;;;;;;;13.04;84.47;101522.28;1758778;79;27507;-77
2022/08/08 05:09:34;;;;;;;6.50;4.12;;;;;;;13.13;84.71;101525.23;1751123;79;26551;-76
2022/08/08 05:12:02;;;;;;;5.40;4.37;;;;;;;13.24;85.13;101525.31;1753741;79;26473;-76
2022/08/08 05:14:29;;;;;;;6.00;4.50;;;;;;;13.35;84.74;101526.73;1751000;79;26009;-77
2022/08/08 05:16:59;;;;;;;7.87;5.30;;;;;;;13.46;85.06;101523.10;1774224;79;26172;-76
2022/08/08 05:19:25;;;;;;;5.75;4.53;;;;;;;13.56;85.44;101528.20;1748132;79;27459;-75
2022/08/08 05:21:54;;;;;;;9.98;4.70;;;;;;;13.66;85.99;101529.64;1762759;79;26458;-76
2022/08/08 05:24:21;;;;;;;7.35;4.97;;;;;;;13.76;86.02;101532.05;1770841;79;25735;-76
2022/08/08 05:26:47;;;;;;;6.28;4.67;;;;;;;13.85;86.08;101527.75;1735377;79;26380;-76
2022/08/08 05:29:14;;;;;;;7.45;6.00;;;;;;;13.95;85.96;101520.72;1766750;79;25736;-77
2022/08/08 05:31:41;;;;;;;6.67;5.00;;;;;;;14.03;86.10;101523.84;1742143;79;28309;-75
2022/08/08 05:34:35;;;;;;;7.70;4.87;;;;;;;14.12;86.22;101531.63;1737371;79;25730;-76
2022/08/08 05:37:04;;;;;;;10.98;4.58;;;;;;;14.21;86.31;101527.81;1757633;79;25758;-78
2022/08/08 05:39:31;;;;;;;9.35;5.25;;;;;;;14.31;86.11;101535.12;1738783;81;25952;-76
2022/08/08 05:41:58;;;;;;;8.25;5.58;;;;;;;14.45;86.00;101530.73;1747291;81;26679;-76
2022/08/08 05:44:29;;;;;;;8.40;5.35;;;;;;;14.56;85.69;101536.99;1757704;79;27514;-76
2022/08/08 05:46:58;;;;;;;8.13;4.92;;;;;;;14.68;85.68;101542.20;1755754;79;25759;-78
2022/08/08 05:49:25;;;;;;;8.05;5.00;;;;;;;14.79;85.84;101536.31;1759320;79;25628;-76
2022/08/08 05:51:52;;;;;;;6.12;4.83;;;;;;;14.92;85.88;101534.27;1721357;81;26602;-76
2022/08/08 05:54:20;;;;;;;9.85;4.60;;;;;;;15.06;85.93;101536.05;1761978;81;25302;-77
2022/08/08 05:56:49;;;;;;;10.00;5.47;;;;;;;15.18;85.85;101542.61;1762415;80;28805;-76
2022/08/08 05:59:23;;;;;;;7.72;5.00;;;;;;;15.29;85.61;101543.45;1756687;79;25928;-76
2022/08/08 06:01:55;;;;;;;7.60;4.70;;;;;;;15.41;85.69;101541.87;1763860;79;25992;-77
2022/08/08 06:04:29;;;;;;;9.00;5.40;;;;;;;15.52;85.76;101537.33;1760454;79;26653;-77
2022/08/08 06:07:01;;;;;;;7.95;5.15;;;;;;;15.66;85.88;101536.39;1767690;79;25892;-76
2022/08/08 06:09:36;;;;;;;8.23;5.22;;;;;;;15.80;85.81;101544.89;1752298;81;27493;-77
2022/08/08 06:12:04;;;;;;;6.87;5.28;;;;;;;15.92;85.97;101543.32;1755784;79;26039;-77
2022/08/08 06:14:30;;;;;;;6.60;4.67;;;;;;;16.05;85.84;101554.72;1743554;79;26546;-76
2022/08/08 06:17:00;;;;;;;7.78;5.05;;;;;;;16.18;85.41;101551.59;1772567;79;25881;-77
2022/08/08 06:19:48;;;;;;;10.40;5.05;;;;;;;16.29;85.33;101545.28;1761979;79;25943;-74
2022/08/08 06:22:15;;;;;;;11.30;5.70;;;;;;;16.44;85.37;101551.38;1756100;79;27478;-76
2022/08/08 06:24:43;;;;;;;8.15;4.65;;;;;;;16.57;85.46;101555.53;1761486;79;25827;-76
2022/08/08 06:27:12;;;;;;;7.60;4.53;;;;;;;16.71;84.91;101555.87;1753851;81;26460;-76
2022/08/08 06:30:04;;;;;;;7.05;4.45;;;;;;;16.83;84.71;101556.94;1762763;79;25935;-77
2022/08/08 06:32:43;;;;;;;7.00;4.45;;;;;;;16.95;84.73;101554.81;1753000;79;25733;-76
2022/08/08 06:35:13;;;;;;;7.08;4.45;;;;;;;17.07;84.60;101555.02;1756805;79;28275;-74
2022/08/08 06:37:53;;;;;;;8.03;4.28;;;;;;;17.19;85.26;101549.33;1751208;79;26619;-76
2022/08/08 06:40:24;;;;;;;7.17;3.98;;;;;;;17.31;84.60;101552.23;1789648;79;25894;-76
2022/08/08 06:43:03;;;;;;;7.10;3.75;;;;;;;17.44;84.42;101551.73;1795173;79;26361;-76
2022/08/08 06:45:32;;;;;;;;;;;;;;;17.56;83.63;101557.38;1760366;79;25828;-76
2022/08/08 06:48:00;;;;;;;4.72;3.10;;;;;;;17.68;83.33;101553.00;1796940;79;27472;-77
2022/08/08 06:50:28;;;;;;;6.22;3.20;;;;;;;17.76;82.57;101554.65;1738519;80;25817;-77
2022/08/08 06:52:54;;;;;;;7.83;3.52;;;;;;;17.86;81.92;101557.23;1747243;79;26531;-76
2022/08/08 06:55:22;;;;;;;3.87;2.90;;;;;;;17.96;81.41;101563.08;1748283;79;25936;-76
2022/08/08 06:57:48;;;;;;;8.18;3.00;;;;;;;18.05;81.35;101560.98;1760420;79;26005;-75
2022/08/08 07:00:15;;;;;;;5.78;3.05;;;;;;;18.16;80.76;101556.23;1755535;79;28318;-76
2022/08/08 07:02:47;;;;;;;7.90;4.05;;;;;;;18.28;81.08;101558.06;1744089;79;25814;-77
2022/08/08 07:05:15;;;;;;;8.13;3.30;;;;;;;18.41;80.73;101557.21;1756234;79;26424;-77
2022/08/08 07:08:03;;;;;;;4.87;2.67;;;;;;;18.52;79.64;101562.52;1752521;79;26663;-76
2022/08/08 07:10:37;;;;;;;4.83;2.60;;;;;;;18.64;79.12;101561.63;1790972;78;26002;-77
2022/08/08 07:13:08;;;;;;;2.98;2.40;;;;;;;18.79;79.26;101564.05;1776718;79;28306;-76
2022/08/08 07:15:52;;;;;;;4.92;2.37;;;;;;;18.89;77.96;101561.17;1797251;79;25604;-77
2022/08/08 07:18:34;;;;;;;3.87;2.10;;;;;;;18.99;76.52;101558.80;1791916;78;25735;-77
2022/08/08 07:21:07;;;;;;;5.25;2.22;;;;;;;19.10;76.68;101563.53;1796926;79;26601;-75
2022/08/08 07:23:44;;;;;;;4.53;2.12;;;;;;;19.22;75.99;101564.48;1788419;78;25793;-76
2022/08/08 07:26:14;;;;;;;3.87;2.42;;;;;;;19.32;75.28;101556.38;1794246;78;27413;-75
2022/08/08 07:28:43;;;;;;;3.92;2.60;;;;;;;19.43;75.20;101562.50;1797179;79;25805;-77
2022/08/08 07:31:09;;;;;;;5.50;2.60;;;;;;;19.52;74.25;101567.45;1780807;79;25747;-76
2022/08/08 07:33:37;;;;;;;5.17;2.70;;;;;;;19.62;74.33;101565.05;1796963;78;26309;-75
2022/08/08 07:36:07;;;;;;;6.12;2.58;;;;;;;19.71;73.83;101563.72;1792485;79;26417;-76
2022/08/08 07:38:36;;;;;;;6.67;2.43;;;;;;;19.83;73.80;101565.16;1779960;79;26969;-77
2022/08/08 07:41:07;;;;;;;4.03;2.40;;;;;;;19.92;73.80;101563.30;1797953;79;25783;-77
2022/08/08 07:43:38;;;;;;;6.33;2.20;;;;;;;19.99;73.07;101565.95;1795833;79;25864;-77
2022/08/08 07:46:09;;;;;;;5.40;2.12;;;;;;;20.05;73.10;101569.13;1797456;79;26594;-76
2022/08/08 07:48:36;;;;;;;6.05;2.40;;;;;;;20.15;72.66;101567.23;1784824;79;25964;-75
2022/08/08 07:51:03;;;;;;;8.15;2.10;;;;;;;20.18;72.12;101568.16;1762295;79;28293;-76
2022/08/08 07:54:05;;;;;;;2.70;1.77;;;;;;;20.21;71.52;101567.75;1752176;79;25815;-76
2022/08/08 07:57:01;;;;;;;5.55;1.98;;;;;;;20.28;72.37;101569.84;1757705;81;26528;-76
2022/08/08 07:59:36;;;;;;;4.42;1.80;;;;;;;20.37;71.38;101569.84;1730951;79;25796;-77
2022/08/08 08:02:06;;;;;;;2.83;1.67;;;;;;;20.44;68.77;101566.53;1745579;79;26322;-77
2022/08/08 08:04:35;;;;;;;10.07;2.37;;;;;;;20.51;69.54;101566.73;1759049;79;28308;-76
2022/08/08 08:07:02;;;;;;;2.52;1.50;;;;;;;20.60;68.93;101570.81;1747196;79;25822;-77
2022/08/08 08:09:36;;;;;;;3.12;1.67;;;;;;;20.67;67.88;101570.20;1739438;79;25805;-77
2022/08/08 08:12:04;;;;;;;2.72;1.67;;;;;;;20.73;67.41;101569.28;1751127;79;25772;-75
2022/08/08 08:14:50;;;;;;;3.42;1.72;;;;;;;20.82;66.77;101573.04;1761973;79;25812;-77
2022/08/08 08:17:18;;;;;;;5.10;1.50;;;;;;;20.89;66.93;101575.99;1752869;79;27428;-74
2022/08/08 08:19:49;;;;;;;5.78;1.32;;;;;;;20.97;66.34;101574.30;1754902;79;25928;-76
2022/08/08 08:22:17;;;;;;;2.95;1.67;;;;;;;21.02;65.72;101573.05;1753188;79;25318;-76
2022/08/08 08:24:45;;;;;;;1.90;1.17;;;;;;;21.09;65.58;101572.98;1757731;81;26928;-77
2022/08/08 08:27:11;;;;;;;4.33;1.70;;;;;;;21.13;65.46;101570.94;1767888;79;25751;-76
2022/08/08 08:29:40;;;;;;;5.30;1.82;;;;;;;21.23;66.16;101569.02;1731728;81;28432;-76
2022/08/08 08:32:07;;;;;;;1.35;1.25;;;;;;;21.33;65.17;101566.55;1749009;79;26718;-76
2022/08/08 08:34:38;;;;;;;1.82;1.57;;;;;;;21.42;64.90;101567.88;1795883;79;26234;-76
2022/08/08 08:37:04;;;;;;;1.62;1.45;;;;;;;21.51;65.38;101572.73;1749045;80;26620;-76
2022/08/08 08:39:31;;;;;;;4.03;1.40;;;;;;;21.55;65.12;101569.03;1730039;82;26051;-77
2022/08/08 08:42:00;;;;;;;3.42;1.50;;;;;;;21.54;62.67;101565.98;1744086;79;28367;-77
2022/08/08 08:44:27;;;;;;;1.77;1.37;;;;;;;21.57;62.79;101579.16;1759932;79;25977;-76
2022/08/08 08:46:56;;;;;;;3.02;1.25;;;;;;;21.61;62.09;101570.80;1753788;79;25893;-76
2022/08/08 08:49:22;;;;;;;2.95;1.27;;;;;;;21.63;62.03;101571.39;1737829;81;25749;-75
2022/08/08 08:51:51;;;;;;;2.52;0.80;;;;;;;21.68;62.09;101564.71;1754614;79;26469;-76
2022/08/08 08:54:22;;;;;;;2.17;0.82;;;;;;;21.76;61.45;101568.45;1763929;79;27466;-76
2022/08/08 08:56:50;;;;;;;2.45;1.15;;;;;;;21.86;61.09;101566.50;1762537;79;25816;-77
2022/08/08 08:59:18;;;;;;;2.50;1.20;;;;;;;21.94;60.74;101567.53;1748317;79;25811;-76
2022/08/08 09:01:50;;;;;;;2.67;0.90;;;;;;;22.01;59.68;101572.31;1757216;79;26750;-76
2022/08/08 09:04:24;;;;;;;7.58;2.22;;;;;;;22.07;60.06;101564.53;1759731;81;25800;-77
2022/08/08 09:06:52;;;;;;;3.30;1.55;;;;;;;22.12;59.49;101559.20;1742883;79;46420;-76
2022/08/08 09:09:27;;;;;;;3.80;1.30;;;;;;;22.20;59.21;101558.82;1752521;79;26462;-75
2022/08/08 09:11:57;;;;;;;1.60;1.22;;;;;;;22.28;58.64;101555.75;1747516;79;25672;-76
2022/08/08 09:14:26;;;;;;;2.37;1.20;;;;;;;22.38;57.69;101568.77;1759582;79;26353;-76
2022/08/08 09:16:54;;;;;;;1.57;1.07;;;;;;;22.38;57.87;101557.84;1754296;79;26310;-76
2022/08/08 09:19:22;;;;;;;2.10;1.02;;;;;;;22.44;57.05;101552.25;1757033;79;27523;-76
2022/08/08 09:21:52;;;;;;;1.75;0.80;;;;;;;22.49;57.83;101553.73;1754238;79;25978;-77
2022/08/08 09:24:19;;;;;;;1.77;1.00;;;;;;;22.59;59.01;101549.02;1756634;79;25803;-77
2022/08/08 09:27:07;;;;;;;4.67;1.00;;;;;;;22.70;58.36;101547.62;1731081;79;26447;-76
2022/08/08 09:29:50;;;;;;;2.27;1.32;;;;;;;22.82;58.31;101558.49;1738689;81;26920;-76
2022/08/08 09:32:31;;;;;;;2.75;1.45;;;;;;;22.89;57.47;101554.55;1762276;79;27432;-77
2022/08/08 09:35:03;;;;;;;1.65;0.90;;;;;;;22.95;57.29;101557.67;1742604;79;25840;-76
2022/08/08 09:37:33;;;;;;;1.52;1.02;;;;;;;22.97;57.54;101545.95;1750364;79;26213;-77
2022/08/08 09:40:09;;;;;;;1.82;1.02;;;;;;;22.94;55.83;101552.45;1758671;79;25783;-76
2022/08/08 09:42:39;;;;;;;1.50;0.93;;;;;;;22.93;55.68;101554.88;1751769;79;25716;-77
2022/08/08 09:45:26;;;;;;;2.02;1.17;;;;;;;22.85;54.48;101555.28;1749964;79;26928;-77
2022/08/08 09:47:52;;;;;;;2.10;0.72;;;;;;;22.83;54.28;101552.81;1759877;79;25786;-76
2022/08/08 09:50:29;;;;;;;1.37;0.70;;;;;;;22.90;53.58;101551.30;1759537;79;25840;-77
2022/08/08 09:52:57;;;;;;;3.62;1.00;;;;;;;22.94;55.14;101545.63;1761930;80;26608;-77
2022/08/08 09:55:32;;;;;;;2.37;1.00;;;;;;;23.01;55.46;101550.38;1753330;79;25839;-77
2022/08/08 09:58:06;;;;;;;2.52;0.80;;;;;;;23.14;54.26;101553.38;1754210;79;27700;-77
2022/08/08 10:00:37;;;;;;;3.98;1.00;;;;;;;23.27;54.81;101550.30;1784706;78;26455;-77
2022/08/08 10:03:06;;;;;;;2.22;1.02;;;;;;;23.46;55.37;101541.64;1796814;79;25945;-77
2022/08/08 10:05:36;;;;;;;1.90;1.17;;;;;;;23.66;55.48;101543.34;1733645;81;26590;-78
2022/08/08 10:08:05;;;;;;;2.45;0.90;;;;;;;23.76;55.16;101544.02;1740365;81;26564;-74
2022/08/08 10:10:36;;;;;;;2.10;1.07;;;;;;;23.72;53.75;101540.12;1733923;81;27472;-76
2022/08/08 10:13:24;;;;;;;2.20;0.90;;;;;;;23.65;53.62;101546.34;1754746;81;26640;-80
2022/08/08 10:15:53;;;;;;;2.95;1.05;;;;;;;23.65;53.32;101543.03;1745311;80;26430;-76
2022/08/08 10:18:30;;;;;;;2.83;1.10;;;;;;;23.70;52.83;101536.81;1735558;81;26567;-77
2022/08/08 10:21:07;;;;;;;4.17;1.30;;;;;;;23.69;53.39;101537.35;1747283;80;25812;-76
2022/08/08 10:23:42;;;;;;;1.05;0.90;;;;;;;23.75;52.04;101532.80;1742773;81;27448;-77
2022/08/08 10:26:19;;;;;;;7.10;1.20;;;;;;;23.74;51.05;101527.86;1747138;80;25827;-76
2022/08/08 10:29:05;;;;;;;2.00;0.95;;;;;;;23.76;50.92;101529.81;1755814;79;25901;-77
2022/08/08 10:34:22;;;;;;;1.67;0.82;;;;;;;23.83;49.65;101532.37;1737457;76;26569;-77
2022/08/08 10:36:50;;;;;;;1.10;0.68;;;;;;;23.86;50.46;101531.87;1748490;81;27437;-77
2022/08/08 10:39:26;;;;;;;5.42;1.00;;;;;;;23.90;48.98;101530.29;1748832;81;25524;-76
2022/08/08 10:42:03;;;;;;;1.27;0.60;;;;;;;23.94;48.16;101530.60;1737075;81;25847;-76
2022/08/08 10:44:35;;;;;;;2.85;1.10;;;;;;;23.99;48.37;101523.84;1720346;81;26445;-76
2022/08/08 10:47:17;;;;;;;2.85;1.10;;;;;;;24.05;50.68;101522.86;1710963;83;26446;-76
2022/08/08 10:49:54;;;;;;;1.70;0.88;;;;;;;24.10;50.92;101521.00;1723405;82;27456;-75
2022/08/08 10:52:30;;;;;;;4.95;1.15;;;;;;;24.07;49.39;101514.69;1711443;83;26407;-76
2022/08/08 10:55:09;;;;;;;0.90;0.70;;;;;;;24.05;49.12;101523.69;1697559;82;25836;-76
2022/08/08 10:57:42;;;;;;;1.85;0.90;;;;;;;24.06;49.09;101523.16;1706564;82;26433;-76
2022/08/08 11:00:12;;;;;;;1.72;0.90;;;;;;;24.00;48.70;101522.74;1709989;82;25955;-77
2022/08/08 11:02:39;;;;;;;2.37;0.98;;;;;;;23.82;48.38;101523.05;1724715;82;27406;-77
2022/08/08 11:05:10;;;;;;;4.83;1.00;;;;;;;23.74;48.49;101521.55;1705277;82;25987;-77
2022/08/08 11:07:42;;;;;;;;;;;;;;;23.71;48.51;101520.17;1714057;83;25824;-76
2022/08/08 11:10:12;;;;;;;3.87;0.78;;;;;;;23.72;47.84;101520.98;1740707;81;26520;-80
2022/08/08 11:12:48;;;;;;;1.20;1.00;;;;;;;23.73;47.80;101513.91;1749933;81;25964;-77
2022/08/08 11:15:21;;;;;;;1.75;0.82;;;;;;;23.80;47.50;101517.00;1745828;81;27456;-78
2022/08/08 11:17:47;;;;;;;1.98;0.85;;;;;;;23.86;48.00;101514.09;1749045;80;25802;-77
2022/08/08 11:20:19;;;;;;;1.17;0.70;;;;;;;23.95;47.86;101515.86;1743453;81;25731;-76
2022/08/08 11:22:50;;;;;;;1.40;0.80;;;;;;;24.06;47.75;101506.73;1751139;80;26581;-77
2022/08/08 11:25:17;;;;;;;1.02;0.85;;;;;;;24.23;47.81;101507.50;1753265;79;25793;-77
2022/08/08 11:27:46;;;;;;;1.75;0.90;;;;;;;24.32;45.73;101504.05;1755849;80;27498;-77
2022/08/08 11:30:14;;;;;;;1.05;0.85;;;;;;;24.41;46.65;101500.31;1755430;81;25991;-76
2022/08/08 11:32:42;;;;;;;1.10;0.70;;;;;;;24.51;46.67;101494.95;1749694;81;26519;-77
2022/08/08 11:35:13;;;;;;;1.95;0.75;;;;;;;24.62;46.74;101497.25;1741525;81;26407;-76
2022/08/08 11:37:41;;;;;;;1.40;0.80;;;;;;;24.76;46.84;101498.02;1758031;81;25827;-77
2022/08/08 11:40:11;;;;;;;1.82;0.85;;;;;;;24.84;46.11;101498.08;1740116;81;28289;-76
2022/08/08 11:42:41;;;;;;;1.85;1.00;;;;;;;24.84;45.80;101496.17;1758034;81;25746;-76
2022/08/08 11:45:11;;;;;;;3.40;1.00;;;;;;;24.87;45.46;101498.94;1747214;81;25902;-77
2022/08/08 11:47:39;;;;;;;3.40;1.05;;;;;;;24.85;45.85;101497.00;1753879;81;26595;-76
2022/08/08 11:50:12;;;;;;;1.72;0.80;;;;;;;24.80;45.31;101497.78;1760017;81;25956;-76
2022/08/08 11:52:40;;;;;;;3.00;0.80;;;;;;;24.73;45.36;101495.75;1755467;81;27467;-77
2022/08/08 11:55:18;;;;;;;1.67;0.80;;;;;;;24.57;44.64;101499.42;1759933;79;26404;-77
2022/08/08 11:57:45;;;;;;;1.60;0.93;;;;;;;24.37;45.31;101497.81;1710546;81;26020;-77
2022/08/08 12:00:17;;;;;;;2.98;0.72;;;;;;;24.17;46.00;101507.13;1734121;81;25774;-77
2022/08/08 12:02:56;;;;;;;2.55;0.93;;;;;;;23.99;46.33;101508.79;1754720;81;26091;-76
2022/08/08 12:05:37;;;;;;;1.77;0.90;;;;;;;23.84;46.83;101508.58;1749914;80;28376;-75
2022/08/08 12:08:04;;;;;;;1.67;0.70;;;;;;;23.68;47.75;101514.36;1750539;81;26552;-76
2022/08/08 12:10:31;;;;;;;4.20;1.25;;;;;;;23.55;47.94;101514.17;1747149;81;25788;-76
2022/08/08 12:13:09;;;;;;;2.02;0.80;;;;;;;23.50;48.41;101516.01;1749776;81;26688;-78
2022/08/08 12:15:39;;;;;;;2.55;0.93;;;;;;;23.46;48.70;101518.39;1724545;82;25708;-77
2022/08/08 12:18:24;;;;;;;1.00;0.60;;;;;;;23.41;48.68;101516.13;1713479;82;26885;-76